sensor_id;sensor_type;location;lat;lon;timestamp;temperature;humidity
19878;DHT22;10101;52.204;9.910;2023-06-14T00:00:15;14.10;1.00
19878;DHT22;10101;52.204;9.910;2023-06-14T00:02:42;14.00;1.00
19878;DHT22;10101;52.204;9.910;2023-06-14T00:05:09;13.90;1.00
19878;DHT22;10101;52.204;9.910;2023-06-14T00:07:39;13.90;1.00
19878;DHT22;10101;52.204;9.910;2023-06-14T00:10:08;13.80;1.00
19878;DHT22;10101;52.204;9.910;2023-06-14T00:12:36;13.80;1.00
19878;DHT22;10101;52.204;9.910;2023-06-14T00:15:04;13.80;1.00
19878;DHT22;10101;52.204;9.910;2023-06-14T00:17:32;13.70;1.00
19878;DHT22;10101;52.204;9.910;2023-06-14T00:19:59;13.70;1.00
19878;DHT22;10101;52.204;9.910;2023-06-14T00:22:29;13.80;1.00
19878;DHT22;10101;52.204;9.910;2023-06-14T00:24:57;13.70;1.00
19878;DHT22;10101;52.204;9.910;2023-06-14T00:27:23;13.50;1.00
19878;DHT22;10101;52.204;9.910;2023-06-14T00:29:51;13.50;1.00
19878;DHT22;10101;52.204;9.910;2023-06-14T00:32:18;13.60;1.00
19878;DHT22;10101;52.204;9.910;2023-06-14T00:34:51;13.60;43.20
19878;DHT22;10101;52.204;9.910;2023-06-14T00:37:17;13.40;1.00
19878;DHT22;10101;52.204;9.910;2023-06-14T00:39:44;13.40;1.00
19878;DHT22;10101;52.204;9.910;2023-06-14T00:42:11;13.40;32.60
19878;DHT22;10101;52.204;9.910;2023-06-14T00:44:38;13.30;2.00
19878;DHT22;10101;52.204;9.910;2023-06-14T00:47:04;13.30;79.60
19878;DHT22;10101;52.204;9.910;2023-06-14T00:49:31;13.40;99.90
19878;DHT22;10101;52.204;9.910;2023-06-14T00:51:59;13.30;99.90
19878;DHT22;10101;52.204;9.910;2023-06-14T00:54:27;13.20;73.60
19878;DHT22;10101;52.204;9.910;2023-06-14T00:56:54;13.20;99.90
19878;DHT22;10101;52.204;9.910;2023-06-14T00:59:21;13.00;99.90
19878;DHT22;10101;52.204;9.910;2023-06-14T01:01:47;13.00;99.90
19878;DHT22;10101;52.204;9.910;2023-06-14T01:04:14;12.90;99.90
19878;DHT22;10101;52.204;9.910;2023-06-14T01:06:45;12.90;99.90
19878;DHT22;10101;52.204;9.910;2023-06-14T01:09:23;12.80;99.90
19878;DHT22;10101;52.204;9.910;2023-06-14T01:12:00;12.60;12.10
19878;DHT22;10101;52.204;9.910;2023-06-14T01:14:30;12.60;99.90
19878;DHT22;10101;52.204;9.910;2023-06-14T01:16:58;12.70;99.90
19878;DHT22;10101;52.204;9.910;2023-06-14T01:19:26;12.50;99.90
19878;DHT22;10101;52.204;9.910;2023-06-14T01:21:53;12.50;99.90
19878;DHT22;10101;52.204;9.910;2023-06-14T01:24:22;12.50;1.00
19878;DHT22;10101;52.204;9.910;2023-06-14T01:26:52;12.50;1.00
19878;DHT22;10101;52.204;9.910;2023-06-14T01:29:22;12.40;1.00
19878;DHT22;10101;52.204;9.910;2023-06-14T01:31:49;12.40;1.00
19878;DHT22;10101;52.204;9.910;2023-06-14T01:34:16;12.30;1.00
19878;DHT22;10101;52.204;9.910;2023-06-14T01:36:44;12.20;1.00
19878;DHT22;10101;52.204;9.910;2023-06-14T01:39:14;12.20;19.10
19878;DHT22;10101;52.204;9.910;2023-06-14T01:41:43;12.10;99.90
19878;DHT22;10101;52.204;9.910;2023-06-14T01:44:12;12.10;99.90
19878;DHT22;10101;52.204;9.910;2023-06-14T01:46:40;12.10;99.90
19878;DHT22;10101;52.204;9.910;2023-06-14T01:49:07;12.20;1.00
19878;DHT22;10101;52.204;9.910;2023-06-14T01:51:34;12.10;1.00
19878;DHT22;10101;52.204;9.910;2023-06-14T01:54:01;12.20;1.00
19878;DHT22;10101;52.204;9.910;2023-06-14T01:56:28;12.30;1.00
19878;DHT22;10101;52.204;9.910;2023-06-14T01:58:57;12.40;1.00
19878;DHT22;10101;52.204;9.910;2023-06-14T02:01:24;12.20;1.00
19878;DHT22;10101;52.204;9.910;2023-06-14T02:03:52;12.20;1.00
19878;DHT22;10101;52.204;9.910;2023-06-14T02:06:19;12.20;1.00
19878;DHT22;10101;52.204;9.910;2023-06-14T02:08:46;11.90;1.00
19878;DHT22;10101;52.204;9.910;2023-06-14T02:11:13;12.20;1.00
19878;DHT22;10101;52.204;9.910;2023-06-14T02:13:39;12.10;1.00
19878;DHT22;10101;52.204;9.910;2023-06-14T02:16:07;12.20;1.00
19878;DHT22;10101;52.204;9.910;2023-06-14T02:18:34;12.10;1.00
19878;DHT22;10101;52.204;9.910;2023-06-14T02:21:01;12.10;1.00
19878;DHT22;10101;52.204;9.910;2023-06-14T02:23:27;11.90;1.00
19878;DHT22;10101;52.204;9.910;2023-06-14T02:25:54;11.90;1.00
19878;DHT22;10101;52.204;9.910;2023-06-14T02:28:21;11.70;1.00
19878;DHT22;10101;52.204;9.910;2023-06-14T02:30:48;11.60;1.00
19878;DHT22;10101;52.204;9.910;2023-06-14T02:33:16;11.50;1.00
19878;DHT22;10101;52.204;9.910;2023-06-14T02:35:43;11.40;1.00
19878;DHT22;10101;52.204;9.910;2023-06-14T02:38:11;11.20;1.00
19878;DHT22;10101;52.204;9.910;2023-06-14T02:40:38;11.10;1.00
19878;DHT22;10101;52.204;9.910;2023-06-14T02:43:06;11.20;99.90
19878;DHT22;10101;52.204;9.910;2023-06-14T02:45:33;11.10;99.90
19878;DHT22;10101;52.204;9.910;2023-06-14T02:48:00;11.10;1.00
19878;DHT22;10101;52.204;9.910;2023-06-14T02:50:28;11.10;1.00
19878;DHT22;10101;52.204;9.910;2023-06-14T02:52:55;11.10;1.00
19878;DHT22;10101;52.204;9.910;2023-06-14T02:55:22;11.00;99.90
19878;DHT22;10101;52.204;9.910;2023-06-14T02:57:49;11.00;99.90
19878;DHT22;10101;52.204;9.910;2023-06-14T03:00:17;11.00;99.90
19878;DHT22;10101;52.204;9.910;2023-06-14T03:02:44;11.00;1.00
19878;DHT22;10101;52.204;9.910;2023-06-14T03:05:12;10.90;1.00
19878;DHT22;10101;52.204;9.910;2023-06-14T03:07:41;10.80;1.00
19878;DHT22;10101;52.204;9.910;2023-06-14T03:10:10;10.80;1.00
19878;DHT22;10101;52.204;9.910;2023-06-14T03:12:38;10.80;99.90
19878;DHT22;10101;52.204;9.910;2023-06-14T03:15:06;10.80;99.90
19878;DHT22;10101;52.204;9.910;2023-06-14T03:17:32;10.90;99.90
19878;DHT22;10101;52.204;9.910;2023-06-14T03:19:59;11.00;99.90
19878;DHT22;10101;52.204;9.910;2023-06-14T03:22:26;10.90;1.00
19878;DHT22;10101;52.204;9.910;2023-06-14T03:24:55;11.00;1.00
19878;DHT22;10101;52.204;9.910;2023-06-14T03:27:22;10.90;1.00
19878;DHT22;10101;52.204;9.910;2023-06-14T03:29:49;11.00;1.00
19878;DHT22;10101;52.204;9.910;2023-06-14T03:32:15;11.00;1.00
19878;DHT22;10101;52.204;9.910;2023-06-14T03:34:42;11.10;1.00
19878;DHT22;10101;52.204;9.910;2023-06-14T03:37:10;11.10;1.00
19878;DHT22;10101;52.204;9.910;2023-06-14T03:39:37;11.00;1.00
19878;DHT22;10101;52.204;9.910;2023-06-14T03:42:12;11.00;1.00
19878;DHT22;10101;52.204;9.910;2023-06-14T03:44:39;11.00;1.00
19878;DHT22;10101;52.204;9.910;2023-06-14T03:47:06;10.90;54.60
19878;DHT22;10101;52.204;9.910;2023-06-14T03:49:33;11.00;99.90
19878;DHT22;10101;52.204;9.910;2023-06-14T03:52:00;10.90;99.90
19878;DHT22;10101;52.204;9.910;2023-06-14T03:54:27;10.90;99.90
19878;DHT22;10101;52.204;9.910;2023-06-14T03:56:55;10.80;99.90
19878;DHT22;10101;52.204;9.910;2023-06-14T03:59:23;11.00;1.00
19878;DHT22;10101;52.204;9.910;2023-06-14T04:01:51;11.00;1.00
19878;DHT22;10101;52.204;9.910;2023-06-14T04:04:18;11.00;1.00
19878;DHT22;10101;52.204;9.910;2023-06-14T04:06:46;11.00;1.00
19878;DHT22;10101;52.204;9.910;2023-06-14T04:09:13;11.00;1.00
19878;DHT22;10101;52.204;9.910;2023-06-14T04:11:40;11.10;10.60
19878;DHT22;10101;52.204;9.910;2023-06-14T04:14:07;11.20;99.90
19878;DHT22;10101;52.204;9.910;2023-06-14T04:16:35;11.30;76.40
19878;DHT22;10101;52.204;9.910;2023-06-14T04:19:02;11.40;66.10
19878;DHT22;10101;52.204;9.910;2023-06-14T04:21:29;11.50;13.40
19878;DHT22;10101;52.204;9.910;2023-06-14T04:23:57;11.40;37.30
19878;DHT22;10101;52.204;9.910;2023-06-14T04:26:26;11.40;98.80
19878;DHT22;10101;52.204;9.910;2023-06-14T04:28:55;11.60;99.90
19878;DHT22;10101;52.204;9.910;2023-06-14T04:31:28;11.70;99.90
19878;DHT22;10101;52.204;9.910;2023-06-14T04:33:56;12.00;99.90
19878;DHT22;10101;52.204;9.910;2023-06-14T04:36:24;12.30;99.90
19878;DHT22;10101;52.204;9.910;2023-06-14T04:38:54;12.70;95.00
19878;DHT22;10101;52.204;9.910;2023-06-14T04:41:21;12.70;1.00
19878;DHT22;10101;52.204;9.910;2023-06-14T04:43:48;13.10;1.00
19878;DHT22;10101;52.204;9.910;2023-06-14T04:46:15;13.30;99.90
19878;DHT22;10101;52.204;9.910;2023-06-14T04:48:45;13.50;99.90
19878;DHT22;10101;52.204;9.910;2023-06-14T04:51:14;13.60;1.00
19878;DHT22;10101;52.204;9.910;2023-06-14T04:53:42;13.40;99.90
19878;DHT22;10101;52.204;9.910;2023-06-14T04:56:09;13.80;99.90
19878;DHT22;10101;52.204;9.910;2023-06-14T04:58:36;14.00;99.90
19878;DHT22;10101;52.204;9.910;2023-06-14T05:01:03;14.00;37.80
19878;DHT22;10101;52.204;9.910;2023-06-14T05:03:30;14.30;1.00
19878;DHT22;10101;52.204;9.910;2023-06-14T05:05:57;14.20;1.00
19878;DHT22;10101;52.204;9.910;2023-06-14T05:08:27;14.40;1.00
19878;DHT22;10101;52.204;9.910;2023-06-14T05:10:53;14.90;1.00
19878;DHT22;10101;52.204;9.910;2023-06-14T05:13:20;15.00;1.00
19878;DHT22;10101;52.204;9.910;2023-06-14T05:15:48;15.10;99.90
19878;DHT22;10101;52.204;9.910;2023-06-14T05:18:15;15.50;99.90
19878;DHT22;10101;52.204;9.910;2023-06-14T05:20:42;15.60;99.90
19878;DHT22;10101;52.204;9.910;2023-06-14T05:23:09;15.10;1.00
19878;DHT22;10101;52.204;9.910;2023-06-14T05:25:42;15.40;1.00
19878;DHT22;10101;52.204;9.910;2023-06-14T05:28:09;15.80;1.00
19878;DHT22;10101;52.204;9.910;2023-06-14T05:30:37;16.10;1.00
19878;DHT22;10101;52.204;9.910;2023-06-14T05:33:04;15.80;99.90
19878;DHT22;10101;52.204;9.910;2023-06-14T05:35:31;15.60;1.00
19878;DHT22;10101;52.204;9.910;2023-06-14T05:37:58;16.30;99.90
19878;DHT22;10101;52.204;9.910;2023-06-14T05:40:24;16.20;99.90
19878;DHT22;10101;52.204;9.910;2023-06-14T05:42:52;16.90;1.00
19878;DHT22;10101;52.204;9.910;2023-06-14T05:45:19;16.80;99.90
19878;DHT22;10101;52.204;9.910;2023-06-14T05:47:46;16.50;1.00
19878;DHT22;10101;52.204;9.910;2023-06-14T05:50:13;17.20;99.90
19878;DHT22;10101;52.204;9.910;2023-06-14T05:52:39;17.30;99.90
19878;DHT22;10101;52.204;9.910;2023-06-14T05:55:07;17.80;99.90
19878;DHT22;10101;52.204;9.910;2023-06-14T05:57:33;17.40;1.00
19878;DHT22;10101;52.204;9.910;2023-06-14T06:00:02;18.00;1.00
19878;DHT22;10101;52.204;9.910;2023-06-14T06:02:35;18.00;1.00
19878;DHT22;10101;52.204;9.910;2023-06-14T06:05:01;17.90;1.00
19878;DHT22;10101;52.204;9.910;2023-06-14T06:07:28;17.50;99.90
19878;DHT22;10101;52.204;9.910;2023-06-14T06:09:58;17.10;1.00
19878;DHT22;10101;52.204;9.910;2023-06-14T06:12:25;18.30;1.00
19878;DHT22;10101;52.204;9.910;2023-06-14T06:14:52;18.60;1.00
19878;DHT22;10101;52.204;9.910;2023-06-14T06:17:20;19.00;1.00
19878;DHT22;10101;52.204;9.910;2023-06-14T06:19:47;18.30;99.90
19878;DHT22;10101;52.204;9.910;2023-06-14T06:22:14;18.80;99.90
19878;DHT22;10101;52.204;9.910;2023-06-14T06:24:40;18.80;99.90
19878;DHT22;10101;52.204;9.910;2023-06-14T06:27:07;19.00;99.90
19878;DHT22;10101;52.204;9.910;2023-06-14T06:29:34;19.20;99.90
19878;DHT22;10101;52.204;9.910;2023-06-14T06:32:01;18.80;99.90
19878;DHT22;10101;52.204;9.910;2023-06-14T06:34:29;19.20;99.90
19878;DHT22;10101;52.204;9.910;2023-06-14T06:36:56;19.30;99.90
19878;DHT22;10101;52.204;9.910;2023-06-14T06:39:22;19.10;99.90
19878;DHT22;10101;52.204;9.910;2023-06-14T06:41:49;18.90;99.90
19878;DHT22;10101;52.204;9.910;2023-06-14T06:44:16;19.00;1.00
19878;DHT22;10101;52.204;9.910;2023-06-14T06:46:43;19.10;99.90
19878;DHT22;10101;52.204;9.910;2023-06-14T06:49:10;19.30;1.00
19878;DHT22;10101;52.204;9.910;2023-06-14T06:51:41;19.20;1.00
19878;DHT22;10101;52.204;9.910;2023-06-14T06:54:08;19.50;99.90
19878;DHT22;10101;52.204;9.910;2023-06-14T06:56:35;19.60;46.70
19878;DHT22;10101;52.204;9.910;2023-06-14T06:59:02;19.30;1.00
19878;DHT22;10101;52.204;9.910;2023-06-14T07:01:29;19.80;17.60
19878;DHT22;10101;52.204;9.910;2023-06-14T07:03:55;19.40;99.90
19878;DHT22;10101;52.204;9.910;2023-06-14T07:06:22;20.10;99.90
19878;DHT22;10101;52.204;9.910;2023-06-14T07:08:53;20.20;1.00
19878;DHT22;10101;52.204;9.910;2023-06-14T07:11:20;20.30;1.00
19878;DHT22;10101;52.204;9.910;2023-06-14T07:13:47;20.30;99.90
19878;DHT22;10101;52.204;9.910;2023-06-14T07:16:14;19.70;99.90
19878;DHT22;10101;52.204;9.910;2023-06-14T07:18:41;20.50;1.00
19878;DHT22;10101;52.204;9.910;2023-06-14T07:21:08;21.00;1.00
19878;DHT22;10101;52.204;9.910;2023-06-14T07:23:35;20.20;99.90
19878;DHT22;10101;52.204;9.910;2023-06-14T07:26:03;20.30;99.90
19878;DHT22;10101;52.204;9.910;2023-06-14T07:28:30;20.30;66.90
19878;DHT22;10101;52.204;9.910;2023-06-14T07:30:57;21.20;1.00
19878;DHT22;10101;52.204;9.910;2023-06-14T07:33:23;20.30;99.90
19878;DHT22;10101;52.204;9.910;2023-06-14T07:35:50;20.10;99.90
19878;DHT22;10101;52.204;9.910;2023-06-14T07:38:18;20.60;99.90
19878;DHT22;10101;52.204;9.910;2023-06-14T07:40:45;20.50;99.90
19878;DHT22;10101;52.204;9.910;2023-06-14T07:43:13;20.80;99.90
19878;DHT22;10101;52.204;9.910;2023-06-14T07:45:40;20.30;99.90
19878;DHT22;10101;52.204;9.910;2023-06-14T07:48:06;20.50;1.00
19878;DHT22;10101;52.204;9.910;2023-06-14T07:50:33;21.50;1.00
19878;DHT22;10101;52.204;9.910;2023-06-14T07:53:00;21.80;1.00
19878;DHT22;10101;52.204;9.910;2023-06-14T07:55:27;21.60;1.00
19878;DHT22;10101;52.204;9.910;2023-06-14T07:57:54;21.50;1.00
19878;DHT22;10101;52.204;9.910;2023-06-14T08:00:22;21.60;1.00
19878;DHT22;10101;52.204;9.910;2023-06-14T08:02:49;21.60;1.00
19878;DHT22;10101;52.204;9.910;2023-06-14T08:05:17;21.80;1.00
19878;DHT22;10101;52.204;9.910;2023-06-14T08:07:44;21.40;1.00
19878;DHT22;10101;52.204;9.910;2023-06-14T08:10:11;21.40;1.00
19878;DHT22;10101;52.204;9.910;2023-06-14T08:12:38;21.50;99.90
19878;DHT22;10101;52.204;9.910;2023-06-14T08:15:05;21.90;1.00
19878;DHT22;10101;52.204;9.910;2023-06-14T08:17:34;22.40;1.00
19878;DHT22;10101;52.204;9.910;2023-06-14T08:20:01;22.10;1.00
19878;DHT22;10101;52.204;9.910;2023-06-14T08:22:29;21.20;99.90
19878;DHT22;10101;52.204;9.910;2023-06-14T08:24:59;21.70;1.00
19878;DHT22;10101;52.204;9.910;2023-06-14T08:27:26;21.40;1.00
19878;DHT22;10101;52.204;9.910;2023-06-14T08:29:53;21.70;1.00
19878;DHT22;10101;52.204;9.910;2023-06-14T08:32:20;21.60;1.00
19878;DHT22;10101;52.204;9.910;2023-06-14T08:34:48;21.80;99.90
19878;DHT22;10101;52.204;9.910;2023-06-14T08:37:15;21.50;99.90
19878;DHT22;10101;52.204;9.910;2023-06-14T08:39:42;21.30;99.90
19878;DHT22;10101;52.204;9.910;2023-06-14T08:42:09;22.20;1.00
19878;DHT22;10101;52.204;9.910;2023-06-14T08:44:36;22.30;1.00
19878;DHT22;10101;52.204;9.910;2023-06-14T08:47:04;22.30;1.00
19878;DHT22;10101;52.204;9.910;2023-06-14T08:49:32;21.90;1.00
19878;DHT22;10101;52.204;9.910;2023-06-14T08:52:01;21.90;1.00
19878;DHT22;10101;52.204;9.910;2023-06-14T08:54:29;22.10;1.00
19878;DHT22;10101;52.204;9.910;2023-06-14T08:56:56;22.00;1.00
19878;DHT22;10101;52.204;9.910;2023-06-14T08:59:25;21.90;1.00
19878;DHT22;10101;52.204;9.910;2023-06-14T09:01:53;21.90;99.90
19878;DHT22;10101;52.204;9.910;2023-06-14T09:04:20;21.90;1.00
19878;DHT22;10101;52.204;9.910;2023-06-14T09:06:47;21.80;99.90
19878;DHT22;10101;52.204;9.910;2023-06-14T09:09:19;22.40;1.00
19878;DHT22;10101;52.204;9.910;2023-06-14T09:11:46;22.40;1.00
19878;DHT22;10101;52.204;9.910;2023-06-14T09:14:13;22.20;99.90
19878;DHT22;10101;52.204;9.910;2023-06-14T09:16:40;22.80;1.00
19878;DHT22;10101;52.204;9.910;2023-06-14T09:19:07;22.90;1.00
19878;DHT22;10101;52.204;9.910;2023-06-14T09:21:34;22.60;1.00
19878;DHT22;10101;52.204;9.910;2023-06-14T09:24:01;22.30;99.90
19878;DHT22;10101;52.204;9.910;2023-06-14T09:26:31;21.90;1.00
19878;DHT22;10101;52.204;9.910;2023-06-14T09:28:58;22.40;1.00
19878;DHT22;10101;52.204;9.910;2023-06-14T09:31:25;22.80;1.00
19878;DHT22;10101;52.204;9.910;2023-06-14T09:33:57;22.50;99.90
19878;DHT22;10101;52.204;9.910;2023-06-14T09:36:25;22.10;99.90
19878;DHT22;10101;52.204;9.910;2023-06-14T09:38:53;22.40;1.00
19878;DHT22;10101;52.204;9.910;2023-06-14T09:41:20;22.00;99.90
19878;DHT22;10101;52.204;9.910;2023-06-14T09:43:48;21.90;99.90
19878;DHT22;10101;52.204;9.910;2023-06-14T09:46:16;22.40;1.00
19878;DHT22;10101;52.204;9.910;2023-06-14T09:48:43;22.40;1.00
19878;DHT22;10101;52.204;9.910;2023-06-14T09:51:14;22.40;1.00
19878;DHT22;10101;52.204;9.910;2023-06-14T09:53:44;23.10;1.00
19878;DHT22;10101;52.204;9.910;2023-06-14T09:56:12;22.60;1.00
19878;DHT22;10101;52.204;9.910;2023-06-14T09:58:40;22.60;1.00
19878;DHT22;10101;52.204;9.910;2023-06-14T10:01:09;23.30;1.00
19878;DHT22;10101;52.204;9.910;2023-06-14T10:03:39;23.30;1.00
19878;DHT22;10101;52.204;9.910;2023-06-14T10:06:09;23.60;1.00
19878;DHT22;10101;52.204;9.910;2023-06-14T10:08:36;23.80;1.00
19878;DHT22;10101;52.204;9.910;2023-06-14T10:11:04;23.90;1.00
19878;DHT22;10101;52.204;9.910;2023-06-14T10:13:32;23.80;1.00
19878;DHT22;10101;52.204;9.910;2023-06-14T10:16:07;23.50;1.00
19878;DHT22;10101;52.204;9.910;2023-06-14T10:18:40;23.80;1.00
19878;DHT22;10101;52.204;9.910;2023-06-14T10:21:16;24.00;1.00
19878;DHT22;10101;52.204;9.910;2023-06-14T10:23:46;23.50;1.00
19878;DHT22;10101;52.204;9.910;2023-06-14T10:26:20;23.70;1.00
19878;DHT22;10101;52.204;9.910;2023-06-14T10:28:58;23.80;1.00
19878;DHT22;10101;52.204;9.910;2023-06-14T10:31:40;23.70;1.00
19878;DHT22;10101;52.204;9.910;2023-06-14T10:34:09;23.60;1.00
19878;DHT22;10101;52.204;9.910;2023-06-14T10:36:36;23.90;1.00
19878;DHT22;10101;52.204;9.910;2023-06-14T10:39:07;23.80;1.00
19878;DHT22;10101;52.204;9.910;2023-06-14T10:41:36;23.50;1.00
19878;DHT22;10101;52.204;9.910;2023-06-14T10:44:31;23.60;1.00
19878;DHT22;10101;52.204;9.910;2023-06-14T10:46:59;24.10;1.00
19878;DHT22;10101;52.204;9.910;2023-06-14T10:49:42;24.30;1.00
19878;DHT22;10101;52.204;9.910;2023-06-14T10:52:11;24.70;1.00
19878;DHT22;10101;52.204;9.910;2023-06-14T10:55:09;24.30;1.00
19878;DHT22;10101;52.204;9.910;2023-06-14T10:57:37;24.60;1.00
19878;DHT22;10101;52.204;9.910;2023-06-14T11:00:06;24.30;1.00
19878;DHT22;10101;52.204;9.910;2023-06-14T11:05:52;23.70;1.00
19878;DHT22;10101;52.204;9.910;2023-06-14T11:08:47;23.90;1.00
19878;DHT22;10101;52.204;9.910;2023-06-14T11:11:18;24.10;1.00
19878;DHT22;10101;52.204;9.910;2023-06-14T11:13:47;24.80;1.00
19878;DHT22;10101;52.204;9.910;2023-06-14T11:16:16;25.20;1.00
19878;DHT22;10101;52.204;9.910;2023-06-14T11:18:44;25.10;1.00
19878;DHT22;10101;52.204;9.910;2023-06-14T11:21:15;25.20;1.00
19878;DHT22;10101;52.204;9.910;2023-06-14T11:23:49;24.60;1.00
19878;DHT22;10101;52.204;9.910;2023-06-14T11:26:15;24.00;1.00
19878;DHT22;10101;52.204;9.910;2023-06-14T11:28:42;23.90;99.90
19878;DHT22;10101;52.204;9.910;2023-06-14T11:31:09;24.20;99.90
19878;DHT22;10101;52.204;9.910;2023-06-14T11:33:36;24.40;1.00
19878;DHT22;10101;52.204;9.910;2023-06-14T11:36:06;24.50;1.00
19878;DHT22;10101;52.204;9.910;2023-06-14T11:38:37;24.80;1.00
19878;DHT22;10101;52.204;9.910;2023-06-14T11:41:04;25.00;1.00
19878;DHT22;10101;52.204;9.910;2023-06-14T11:43:31;25.00;1.00
19878;DHT22;10101;52.204;9.910;2023-06-14T11:46:00;24.60;1.00
19878;DHT22;10101;52.204;9.910;2023-06-14T11:48:36;24.80;1.00
19878;DHT22;10101;52.204;9.910;2023-06-14T11:51:03;24.80;1.00
19878;DHT22;10101;52.204;9.910;2023-06-14T11:53:29;24.80;1.00
19878;DHT22;10101;52.204;9.910;2023-06-14T11:55:58;24.70;1.00
19878;DHT22;10101;52.204;9.910;2023-06-14T11:58:25;24.90;1.00
19878;DHT22;10101;52.204;9.910;2023-06-14T12:00:53;24.40;1.00
19878;DHT22;10101;52.204;9.910;2023-06-14T12:03:23;24.60;1.00
19878;DHT22;10101;52.204;9.910;2023-06-14T12:06:02;24.40;99.90
19878;DHT22;10101;52.204;9.910;2023-06-14T12:08:33;24.60;1.00
19878;DHT22;10101;52.204;9.910;2023-06-14T12:11:05;24.60;1.00
19878;DHT22;10101;52.204;9.910;2023-06-14T12:13:34;24.80;1.00
19878;DHT22;10101;52.204;9.910;2023-06-14T12:16:01;24.60;1.00
19878;DHT22;10101;52.204;9.910;2023-06-14T12:18:32;24.70;1.00
19878;DHT22;10101;52.204;9.910;2023-06-14T12:21:00;24.70;1.00
19878;DHT22;10101;52.204;9.910;2023-06-14T12:23:39;25.00;1.00
19878;DHT22;10101;52.204;9.910;2023-06-14T12:26:07;24.80;1.00
19878;DHT22;10101;52.204;9.910;2023-06-14T12:28:35;25.70;1.00
19878;DHT22;10101;52.204;9.910;2023-06-14T12:31:01;25.60;1.00
19878;DHT22;10101;52.204;9.910;2023-06-14T12:33:29;25.60;1.00
19878;DHT22;10101;52.204;9.910;2023-06-14T12:35:56;25.60;1.00
19878;DHT22;10101;52.204;9.910;2023-06-14T12:38:24;26.60;1.00
19878;DHT22;10101;52.204;9.910;2023-06-14T12:40:50;25.80;1.00
19878;DHT22;10101;52.204;9.910;2023-06-14T12:43:19;25.50;1.00
19878;DHT22;10101;52.204;9.910;2023-06-14T12:45:46;25.60;1.00
19878;DHT22;10101;52.204;9.910;2023-06-14T12:48:13;26.00;1.00
19878;DHT22;10101;52.204;9.910;2023-06-14T12:50:40;25.40;1.00
19878;DHT22;10101;52.204;9.910;2023-06-14T12:53:07;25.20;1.00
19878;DHT22;10101;52.204;9.910;2023-06-14T12:55:34;25.70;1.00
19878;DHT22;10101;52.204;9.910;2023-06-14T12:58:01;26.10;1.00
19878;DHT22;10101;52.204;9.910;2023-06-14T13:00:33;26.70;1.00
19878;DHT22;10101;52.204;9.910;2023-06-14T13:03:00;27.60;1.00
19878;DHT22;10101;52.204;9.910;2023-06-14T13:05:27;28.20;1.00
19878;DHT22;10101;52.204;9.910;2023-06-14T13:07:56;27.50;1.00
19878;DHT22;10101;52.204;9.910;2023-06-14T13:10:23;27.90;1.00
19878;DHT22;10101;52.204;9.910;2023-06-14T13:12:50;27.40;1.00
19878;DHT22;10101;52.204;9.910;2023-06-14T13:15:16;27.80;1.00
19878;DHT22;10101;52.204;9.910;2023-06-14T13:17:45;28.70;1.00
19878;DHT22;10101;52.204;9.910;2023-06-14T13:20:14;29.80;1.00
19878;DHT22;10101;52.204;9.910;2023-06-14T13:22:41;29.20;1.00
19878;DHT22;10101;52.204;9.910;2023-06-14T13:25:09;29.70;1.00
19878;DHT22;10101;52.204;9.910;2023-06-14T13:27:35;29.90;1.00
19878;DHT22;10101;52.204;9.910;2023-06-14T13:30:03;29.90;1.00
19878;DHT22;10101;52.204;9.910;2023-06-14T13:32:31;28.80;1.00
19878;DHT22;10101;52.204;9.910;2023-06-14T13:34:59;29.40;1.00
19878;DHT22;10101;52.204;9.910;2023-06-14T13:37:26;29.90;1.00
19878;DHT22;10101;52.204;9.910;2023-06-14T13:39:53;28.60;1.00
19878;DHT22;10101;52.204;9.910;2023-06-14T13:42:19;27.70;1.00
19878;DHT22;10101;52.204;9.910;2023-06-14T13:44:46;27.80;1.00
19878;DHT22;10101;52.204;9.910;2023-06-14T13:47:13;27.40;1.00
19878;DHT22;10101;52.204;9.910;2023-06-14T13:49:40;28.00;1.00
19878;DHT22;10101;52.204;9.910;2023-06-14T13:52:08;27.70;1.00
19878;DHT22;10101;52.204;9.910;2023-06-14T13:54:34;27.30;1.00
19878;DHT22;10101;52.204;9.910;2023-06-14T13:57:02;26.40;1.00
19878;DHT22;10101;52.204;9.910;2023-06-14T13:59:29;26.20;1.00
19878;DHT22;10101;52.204;9.910;2023-06-14T14:01:56;26.50;1.00
19878;DHT22;10101;52.204;9.910;2023-06-14T14:04:23;28.00;1.00
19878;DHT22;10101;52.204;9.910;2023-06-14T14:06:50;28.10;1.00
19878;DHT22;10101;52.204;9.910;2023-06-14T14:09:18;27.40;1.00
19878;DHT22;10101;52.204;9.910;2023-06-14T14:11:45;27.50;1.00
19878;DHT22;10101;52.204;9.910;2023-06-14T14:14:13;26.90;1.00
19878;DHT22;10101;52.204;9.910;2023-06-14T14:16:39;26.50;1.00
19878;DHT22;10101;52.204;9.910;2023-06-14T14:19:07;26.00;1.00
19878;DHT22;10101;52.204;9.910;2023-06-14T14:21:34;26.50;1.00
19878;DHT22;10101;52.204;9.910;2023-06-14T14:24:01;27.30;1.00
19878;DHT22;10101;52.204;9.910;2023-06-14T14:26:29;28.10;1.00
19878;DHT22;10101;52.204;9.910;2023-06-14T14:28:56;29.10;1.00
19878;DHT22;10101;52.204;9.910;2023-06-14T14:31:23;29.20;1.00
19878;DHT22;10101;52.204;9.910;2023-06-14T14:33:49;30.50;1.00
19878;DHT22;10101;52.204;9.910;2023-06-14T14:36:16;30.70;1.00
19878;DHT22;10101;52.204;9.910;2023-06-14T14:38:43;30.20;1.00
19878;DHT22;10101;52.204;9.910;2023-06-14T14:41:10;30.00;1.00
19878;DHT22;10101;52.204;9.910;2023-06-14T14:43:39;29.50;1.00
19878;DHT22;10101;52.204;9.910;2023-06-14T14:46:06;28.80;1.00
19878;DHT22;10101;52.204;9.910;2023-06-14T14:48:32;28.60;1.00
19878;DHT22;10101;52.204;9.910;2023-06-14T14:50:59;28.00;1.00
19878;DHT22;10101;52.204;9.910;2023-06-14T14:53:26;28.20;1.00
19878;DHT22;10101;52.204;9.910;2023-06-14T14:55:53;29.60;1.00
19878;DHT22;10101;52.204;9.910;2023-06-14T14:58:19;31.30;1.00
19878;DHT22;10101;52.204;9.910;2023-06-14T15:00:47;30.70;1.00
19878;DHT22;10101;52.204;9.910;2023-06-14T15:03:14;29.60;1.00
19878;DHT22;10101;52.204;9.910;2023-06-14T15:05:41;28.90;1.00
19878;DHT22;10101;52.204;9.910;2023-06-14T15:08:08;29.80;1.00
19878;DHT22;10101;52.204;9.910;2023-06-14T15:10:37;28.60;1.00
19878;DHT22;10101;52.204;9.910;2023-06-14T15:13:06;28.50;1.00
19878;DHT22;10101;52.204;9.910;2023-06-14T15:15:33;28.30;1.00
19878;DHT22;10101;52.204;9.910;2023-06-14T15:18:01;28.00;1.00
19878;DHT22;10101;52.204;9.910;2023-06-14T15:20:28;27.60;1.00
19878;DHT22;10101;52.204;9.910;2023-06-14T15:22:55;27.70;1.00
19878;DHT22;10101;52.204;9.910;2023-06-14T15:25:25;27.10;1.00
19878;DHT22;10101;52.204;9.910;2023-06-14T15:27:52;26.60;1.00
19878;DHT22;10101;52.204;9.910;2023-06-14T15:30:18;26.30;1.00
19878;DHT22;10101;52.204;9.910;2023-06-14T15:32:45;26.30;1.00
19878;DHT22;10101;52.204;9.910;2023-06-14T15:35:14;26.10;1.00
19878;DHT22;10101;52.204;9.910;2023-06-14T15:37:41;25.50;1.00
19878;DHT22;10101;52.204;9.910;2023-06-14T15:40:09;25.00;99.90
19878;DHT22;10101;52.204;9.910;2023-06-14T15:42:36;25.20;1.00
19878;DHT22;10101;52.204;9.910;2023-06-14T15:45:03;25.60;99.90
19878;DHT22;10101;52.204;9.910;2023-06-14T15:47:30;26.90;1.00
19878;DHT22;10101;52.204;9.910;2023-06-14T15:49:57;26.80;1.00